Time;durP1;ratioP1;P1;durP2;ratioP2;P2;SDS_P1;SDS_P2;PMS_P1;PMS_P2;Temp;Humidity;BMP_temperature;BMP_pressure;BME280_temperature;BME280_humidity;BME280_pressure;Samples;Min_cycle;Max_cycle;Signal;HPM_P1;HPM_P2
2023/09/03 00:00:44;;;;;;;17.83;11.30;;;13.70;99.90;;;;;;5031542;28;20435;-51
2023/09/03 00:03:12;;;;;;;16.03;11.43;;;13.70;99.90;;;;;;5031781;28;20462;-53
2023/09/03 00:05:38;;;;;;;18.33;11.50;;;13.70;99.90;;;;;;5032137;28;20439;-53
2023/09/03 00:08:05;;;;;;;17.43;11.90;;;13.70;99.90;;;;;;5033205;28;20472;-54
2023/09/03 00:10:34;;;;;;;17.30;11.37;;;13.70;99.90;;;;;;5038321;28;20535;-52
2023/09/03 00:13:01;;;;;;;16.53;12.10;;;13.70;99.90;;;;;;5053098;28;20478;-53
2023/09/03 00:15:27;;;;;;;18.00;11.67;;;13.80;99.90;;;;;;5052268;28;20493;-51
2023/09/03 00:17:54;;;;;;;15.47;11.90;;;13.70;99.90;;;;;;5038345;28;20463;-54
2023/09/03 00:20:22;;;;;;;17.20;11.70;;;13.70;99.90;;;;;;5032654;28;20467;-52
2023/09/03 00:22:48;;;;;;;14.40;11.43;;;13.70;99.90;;;;;;5032914;28;20482;-52
2023/09/03 00:25:15;;;;;;;13.50;11.40;;;13.70;99.90;;;;;;5030274;28;20506;-52
2023/09/03 00:27:42;;;;;;;20.03;11.97;;;13.70;99.90;;;;;;5038403;28;20494;-51
2023/09/03 00:30:11;;;;;;;15.73;11.20;;;13.70;99.90;;;;;;5052525;28;20551;-53
2023/09/03 00:32:37;;;;;;;17.37;11.63;;;13.70;99.90;;;;;;5034630;28;20466;-51
2023/09/03 00:35:05;;;;;;;17.23;12.60;;;13.80;99.90;;;;;;5036258;28;20515;-51
2023/09/03 00:37:33;;;;;;;15.70;11.80;;;13.80;99.90;;;;;;5052559;28;20772;-52
2023/09/03 00:40:00;;;;;;;19.77;12.90;;;13.80;99.90;;;;;;5052619;28;20878;-53
2023/09/03 00:42:27;;;;;;;20.53;12.00;;;13.80;99.90;;;;;;5041588;28;20458;-53
2023/09/03 00:44:53;;;;;;;16.00;12.63;;;13.80;99.90;;;;;;5031066;28;20856;-52
2023/09/03 00:47:20;;;;;;;16.43;12.30;;;13.80;99.90;;;;;;5030911;28;20862;-53
2023/09/03 00:49:47;;;;;;;19.17;12.73;;;13.80;99.90;;;;;;5033955;28;20482;-52
2023/09/03 00:52:18;;;;;;;13.50;11.70;;;13.90;99.90;;;;;;5052487;28;20473;-52
2023/09/03 00:54:46;;;;;;;15.03;11.20;;;13.90;99.90;;;;;;5046544;28;20474;-53
2023/09/03 00:57:13;;;;;;;13.43;10.70;;;13.90;99.90;;;;;;5026156;28;20538;-53
2023/09/03 00:59:41;;;;;;;19.23;11.90;;;14.00;99.90;;;;;;5030539;28;20486;-52
2023/09/03 01:02:08;;;;;;;17.90;11.90;;;14.00;99.90;;;;;;5028101;28;21199;-52
2023/09/03 01:04:35;;;;;;;18.60;11.50;;;14.00;99.90;;;;;;5029393;28;20540;-53
2023/09/03 01:07:02;;;;;;;16.07;11.60;;;14.00;99.90;;;;;;5043846;28;20484;-51
2023/09/03 01:09:28;;;;;;;15.10;10.90;;;14.00;99.90;;;;;;5051913;28;20474;-53
2023/09/03 01:12:03;;;;;;;12.70;11.30;;;14.00;99.90;;;;;;5051883;28;20951;-51
2023/09/03 01:14:37;;;;;;;18.53;13.50;;;14.10;99.90;;;;;;5051198;28;20491;-51
2023/09/03 01:17:17;;;;;;;22.13;15.70;;;14.00;99.90;;;;;;5028073;28;20462;-53
2023/09/03 01:19:56;;;;;;;25.47;15.50;;;14.00;99.90;;;;;;5038126;28;20444;-51
2023/09/03 01:22:32;;;;;;;35.67;19.20;;;14.00;99.90;;;;;;5031977;28;20435;-51
2023/09/03 01:25:09;;;;;;;36.43;19.40;;;14.00;99.90;;;;;;5026585;28;21027;-52
2023/09/03 01:27:45;;;;;;;40.37;19.53;;;14.00;99.90;;;;;;5031819;28;20565;-52
2023/09/03 01:30:15;;;;;;;37.80;19.10;;;14.00;99.90;;;;;;5031936;28;20494;-52
2023/09/03 01:32:43;;;;;;;39.07;19.53;;;14.00;99.90;;;;;;5032939;28;20878;-53
2023/09/03 01:35:10;;;;;;;31.77;18.10;;;13.90;99.90;;;;;;5049068;28;20486;-53
2023/09/03 01:37:37;;;;;;;31.07;18.20;;;13.90;99.90;;;;;;5049415;28;20803;-51
2023/09/03 01:40:04;;;;;;;24.33;16.13;;;13.90;99.90;;;;;;5029448;28;20490;-52
2023/09/03 01:42:31;;;;;;;22.73;13.90;;;13.80;99.90;;;;;;5031537;28;20830;-52
2023/09/03 01:44:58;;;;;;;26.33;14.27;;;13.80;99.90;;;;;;5012327;28;20826;-54
2023/09/03 01:47:34;;;;;;;19.10;12.93;;;13.80;99.90;;;;;;5031967;28;20505;-52
2023/09/03 01:50:15;;;;;;;16.43;12.10;;;13.80;99.90;;;;;;5027428;28;20489;-52
2023/09/03 01:52:50;;;;;;;17.00;11.80;;;13.70;99.90;;;;;;5033793;28;20859;-52
2023/09/03 01:55:19;;;;;;;14.07;11.80;;;13.60;99.90;;;;;;5027627;28;20521;-53
2023/09/03 01:57:49;;;;;;;15.73;12.43;;;13.60;99.90;;;;;;5029666;28;20937;-53
2023/09/03 02:00:16;;;;;;;17.73;12.43;;;13.60;99.90;;;;;;5025762;28;20479;-52
2023/09/03 02:02:47;;;;;;;21.23;12.57;;;13.50;99.90;;;;;;5030595;28;20467;-53
2023/09/03 02:05:14;;;;;;;17.13;12.27;;;13.50;99.90;;;;;;5034982;28;20523;-52
2023/09/03 02:07:41;;;;;;;17.57;12.67;;;13.50;99.90;;;;;;5031795;28;20443;-52
2023/09/03 02:10:09;;;;;;;16.53;12.13;;;13.50;99.90;;;;;;5017442;28;20507;-51
2023/09/03 02:12:36;;;;;;;28.37;12.80;;;13.50;99.90;;;;;;5027202;28;20525;-52
2023/09/03 02:15:02;;;;;;;15.83;12.00;;;13.50;99.90;;;;;;5037674;28;21305;-52
2023/09/03 02:17:29;;;;;;;23.17;13.43;;;13.40;99.90;;;;;;5035521;28;20501;-52
2023/09/03 02:19:57;;;;;;;17.00;13.30;;;13.50;99.90;;;;;;5034477;28;20444;-52
2023/09/03 02:22:24;;;;;;;19.53;13.70;;;13.50;99.90;;;;;;5045614;28;21014;-51
2023/09/03 02:24:51;;;;;;;16.90;13.27;;;13.50;99.90;;;;;;5019771;28;20463;-52
2023/09/03 02:27:17;;;;;;;24.17;13.07;;;13.50;99.90;;;;;;5027068;28;20838;-52
2023/09/03 02:29:44;;;;;;;20.20;11.70;;;13.40;99.90;;;;;;5045734;28;20473;-52
2023/09/03 02:32:10;;;;;;;23.07;12.50;;;13.40;99.90;;;;;;5047140;28;20865;-52
2023/09/03 02:34:37;;;;;;;17.40;12.70;;;13.40;99.90;;;;;;5033671;28;20478;-52
2023/09/03 02:37:05;;;;;;;14.20;11.67;;;13.40;99.90;;;;;;5043087;28;20889;-51
2023/09/03 02:39:32;;;;;;;20.53;12.20;;;13.40;99.90;;;;;;5034569;28;21027;-52
2023/09/03 02:41:58;;;;;;;14.53;11.83;;;13.30;99.90;;;;;;5046517;28;21034;-51
2023/09/03 02:44:25;;;;;;;15.37;11.70;;;13.30;99.90;;;;;;5035321;28;20504;-51
2023/09/03 02:46:52;;;;;;;25.57;13.73;;;13.30;99.90;;;;;;5034771;28;20442;-53
2023/09/03 02:49:20;;;;;;;18.50;12.80;;;13.30;99.90;;;;;;5030977;28;21087;-52
2023/09/03 02:51:46;;;;;;;23.20;13.30;;;13.30;99.90;;;;;;5031775;28;20873;-51
2023/09/03 02:54:14;;;;;;;21.80;13.30;;;13.30;99.90;;;;;;5027245;28;20500;-52
2023/09/03 02:56:41;;;;;;;20.33;12.87;;;13.30;99.90;;;;;;5035940;28;20487;-51
2023/09/03 02:59:07;;;;;;;16.73;11.53;;;13.20;99.90;;;;;;5044577;28;20457;-52
2023/09/03 03:01:34;;;;;;;16.37;12.20;;;13.20;99.90;;;;;;5046228;28;20469;-51
2023/09/03 03:04:01;;;;;;;20.27;13.03;;;13.10;99.90;;;;;;5034920;28;20470;-53
2023/09/03 03:06:27;;;;;;;17.80;11.53;;;13.10;99.90;;;;;;5034100;28;20432;-52
2023/09/03 03:08:54;;;;;;;18.27;12.33;;;13.20;99.90;;;;;;5043352;28;20503;-52
2023/09/03 03:11:23;;;;;;;18.13;13.57;;;13.10;99.90;;;;;;5045674;28;21072;-52
2023/09/03 03:13:51;;;;;;;18.40;13.47;;;13.10;99.90;;;;;;5046529;28;20479;-51
2023/09/03 03:16:18;;;;;;;20.40;13.00;;;13.10;99.90;;;;;;5045652;28;21021;-54
2023/09/03 03:18:46;;;;;;;15.17;11.80;;;13.10;99.90;;;;;;5029302;28;20541;-52
2023/09/03 03:21:15;;;;;;;17.43;13.33;;;13.10;99.90;;;;;;5034024;28;20435;-52
2023/09/03 03:23:42;;;;;;;17.63;13.70;;;13.10;99.90;;;;;;5043672;28;20814;-52
2023/09/03 03:26:09;;;;;;;16.63;12.57;;;13.20;99.90;;;;;;5045838;28;20442;-52
2023/09/03 03:28:37;;;;;;;19.50;12.93;;;13.10;99.90;;;;;;5047032;28;20881;-52
2023/09/03 03:31:11;;;;;;;17.40;13.00;;;13.10;99.90;;;;;;5042867;28;20510;-52
2023/09/03 03:33:38;;;;;;;15.70;12.23;;;13.10;99.90;;;;;;5026512;28;20487;-51
2023/09/03 03:36:05;;;;;;;17.53;11.83;;;13.20;99.90;;;;;;5033092;28;20948;-51
2023/09/03 03:38:32;;;;;;;20.27;13.10;;;13.20;99.90;;;;;;5045197;28;20450;-51
2023/09/03 03:41:10;;;;;;;17.43;13.50;;;13.20;99.90;;;;;;5036540;28;20441;-51
2023/09/03 03:43:39;;;;;;;12.50;11.20;;;13.20;99.90;;;;;;5046166;28;20474;-52
2023/09/03 03:46:06;;;;;;;21.67;12.40;;;13.20;99.90;;;;;;5051058;28;20493;-51
2023/09/03 03:48:33;;;;;;;13.20;11.80;;;13.20;99.90;;;;;;5041190;28;20466;-52
2023/09/03 03:51:00;;;;;;;15.60;10.80;;;13.20;99.90;;;;;;5032013;28;20533;-51
2023/09/03 03:53:27;;;;;;;16.80;10.90;;;13.20;99.90;;;;;;5046784;22;20478;-52
2023/09/03 03:55:58;;;;;;;11.77;10.53;;;13.20;99.90;;;;;;5021546;28;20456;-51
2023/09/03 03:58:25;;;;;;;11.90;10.23;;;13.20;99.90;;;;;;5020134;28;20459;-52
2023/09/03 04:00:53;;;;;;;13.27;10.90;;;13.20;99.90;;;;;;5033683;28;20447;-52
2023/09/03 04:03:20;;;;;;;15.97;10.00;;;13.10;99.90;;;;;;5028067;28;20849;-51
2023/09/03 04:05:55;;;;;;;16.40;9.63;;;13.10;99.90;;;;;;5037984;28;20439;-51
2023/09/03 04:08:21;;;;;;;12.20;9.93;;;13.10;99.90;;;;;;5044539;28;20456;-50
2023/09/03 04:10:56;;;;;;;14.20;9.40;;;13.10;99.90;;;;;;5049345;28;20478;-52
2023/09/03 04:13:22;;;;;;;12.13;9.83;;;13.00;99.90;;;;;;5044320;28;20464;-52
2023/09/03 04:15:49;;;;;;;14.03;9.70;;;13.00;99.90;;;;;;5043635;28;20497;-52
2023/09/03 04:18:17;;;;;;;15.20;9.70;;;13.00;99.90;;;;;;5021267;28;20443;-51
2023/09/03 04:20:43;;;;;;;11.80;9.63;;;12.90;99.90;;;;;;5032691;28;20944;-52
2023/09/03 04:23:10;;;;;;;10.40;9.30;;;13.00;99.90;;;;;;5031561;28;21291;-51
2023/09/03 04:25:37;;;;;;;11.23;9.40;;;13.00;99.90;;;;;;5023200;28;20887;-51
2023/09/03 04:28:04;;;;;;;11.07;9.57;;;13.00;99.90;;;;;;5021424;28;20783;-51
2023/09/03 04:30:31;;;;;;;14.70;9.30;;;13.00;99.90;;;;;;5027978;28;20479;-51
2023/09/03 04:32:58;;;;;;;11.33;9.00;;;13.00;99.90;;;;;;5013363;28;20527;-51
2023/09/03 04:35:25;;;;;;;8.73;7.83;;;13.00;99.90;;;;;;5011991;28;20514;-51
2023/09/03 04:37:52;;;;;;;8.90;8.10;;;13.00;99.90;;;;;;5033206;28;20451;-52
2023/09/03 04:40:19;;;;;;;13.97;8.83;;;13.10;99.90;;;;;;5025267;28;20539;-51
2023/09/03 04:42:46;;;;;;;7.77;7.07;;;13.00;99.90;;;;;;5019623;28;20499;-53
2023/09/03 04:45:13;;;;;;;8.47;7.23;;;13.10;99.90;;;;;;5019929;28;20976;-52
2023/09/03 04:47:39;;;;;;;8.70;7.10;;;13.10;99.90;;;;;;5020123;28;20944;-51
2023/09/03 04:50:08;;;;;;;8.23;7.43;;;13.10;99.90;;;;;;5020808;28;20443;-51
2023/09/03 04:52:36;;;;;;;7.93;7.13;;;13.10;99.90;;;;;;5025389;28;20473;-52
2023/09/03 04:55:02;;;;;;;8.10;7.40;;;13.10;99.90;;;;;;5026692;28;20540;-51
2023/09/03 04:57:29;;;;;;;7.37;6.67;;;13.10;99.90;;;;;;5016644;28;20490;-51
2023/09/03 04:59:55;;;;;;;8.17;6.40;;;13.20;99.90;;;;;;5024670;28;20521;-51
2023/09/03 05:02:22;;;;;;;7.33;6.43;;;13.20;99.90;;;;;;5017674;28;20440;-50
2023/09/03 05:04:49;;;;;;;6.90;6.10;;;13.20;99.90;;;;;;5011883;28;20499;-51
2023/09/03 05:07:15;;;;;;;6.23;5.73;;;13.20;99.90;;;;;;5014965;28;20969;-50
2023/09/03 05:09:43;;;;;;;7.53;4.60;;;13.20;99.90;;;;;;5021420;28;20517;-52
2023/09/03 05:12:10;;;;;;;6.60;5.70;;;13.20;99.90;;;;;;5019216;28;20507;-52
2023/09/03 05:14:36;;;;;;;6.07;5.57;;;13.20;99.90;;;;;;5020122;28;20537;-52
2023/09/03 05:17:03;;;;;;;5.80;5.40;;;13.20;99.90;;;;;;5028854;28;20463;-51
2023/09/03 05:19:30;;;;;;;5.70;5.20;;;13.30;99.90;;;;;;5023611;28;20960;-52
2023/09/03 05:21:57;;;;;;;5.40;5.00;;;13.30;99.90;;;;;;5011895;28;20460;-52
2023/09/03 05:24:24;;;;;;;11.50;6.10;;;13.30;99.90;;;;;;5023741;28;20475;-52
2023/09/03 05:26:52;;;;;;;6.50;5.40;;;13.30;99.90;;;;;;5030110;28;20447;-51
2023/09/03 05:29:18;;;;;;;6.50;5.60;;;13.30;99.90;;;;;;5017865;28;20506;-52
2023/09/03 05:31:45;;;;;;;7.80;5.60;;;13.40;99.90;;;;;;5029981;28;20562;-52
2023/09/03 05:34:11;;;;;;;8.43;5.33;;;13.40;99.90;;;;;;5023911;28;20910;-52
2023/09/03 05:36:39;;;;;;;8.10;5.30;;;13.50;99.90;;;;;;5030642;28;20447;-52
2023/09/03 05:39:05;;;;;;;9.40;5.77;;;13.50;99.90;;;;;;5016572;28;20982;-52
2023/09/03 05:41:32;;;;;;;5.17;4.70;;;13.50;99.90;;;;;;5031194;28;20455;-52
2023/09/03 05:44:05;;;;;;;5.20;4.70;;;13.50;99.90;;;;;;5014654;28;20455;-52
2023/09/03 05:46:32;;;;;;;6.20;5.70;;;13.60;99.90;;;;;;5032160;28;20438;-52
2023/09/03 05:48:59;;;;;;;6.03;5.53;;;13.60;99.90;;;;;;5026640;28;20467;-52
2023/09/03 05:51:25;;;;;;;7.03;5.27;;;13.60;99.90;;;;;;5029281;28;20478;-52
2023/09/03 05:53:53;;;;;;;10.67;4.90;;;13.70;99.90;;;;;;5019623;28;20545;-52
2023/09/03 05:56:20;;;;;;;5.17;4.60;;;13.70;99.90;;;;;;5029775;28;20542;-52
2023/09/03 05:58:47;;;;;;;8.23;4.90;;;13.70;99.90;;;;;;5023214;28;20929;-57
2023/09/03 06:01:15;;;;;;;6.50;4.37;;;13.70;99.90;;;;;;5031759;28;20443;-53
2023/09/03 06:03:42;;;;;;;7.60;5.30;;;13.70;99.90;;;;;;5023625;28;20480;-53
2023/09/03 06:06:10;;;;;;;5.30;4.80;;;13.80;99.90;;;;;;5022165;28;20516;-51
2023/09/03 06:08:37;;;;;;;4.90;4.37;;;13.80;99.90;;;;;;5026992;28;21007;-52
2023/09/03 06:11:05;;;;;;;5.93;4.97;;;13.90;99.90;;;;;;5028491;28;20483;-53
2023/09/03 06:13:33;;;;;;;4.80;4.40;;;13.90;99.90;;;;;;5020761;28;21082;-53
2023/09/03 06:16:00;;;;;;;5.13;4.63;;;13.90;99.90;;;;;;5026655;28;20465;-52
2023/09/03 06:18:28;;;;;;;7.37;5.00;;;14.00;99.90;;;;;;5027904;28;20436;-51
2023/09/03 06:20:55;;;;;;;4.80;4.40;;;14.10;99.90;;;;;;5015885;28;20510;-51
2023/09/03 06:23:21;;;;;;;5.53;4.43;;;14.10;99.90;;;;;;5015486;28;20452;-53
2023/09/03 06:25:50;;;;;;;4.70;4.30;;;14.10;99.90;;;;;;5024206;28;20562;-53
2023/09/03 06:28:17;;;;;;;5.70;4.10;;;14.20;99.90;;;;;;5020548;28;20462;-52
2023/09/03 06:30:43;;;;;;;8.80;4.17;;;14.20;99.90;;;;;;5023522;28;20486;-53
2023/09/03 06:33:12;;;;;;;7.10;3.90;;;14.20;99.90;;;;;;5015161;28;20474;-53
2023/09/03 06:35:40;;;;;;;5.20;4.10;;;14.20;99.90;;;;;;5014953;28;20439;-53
2023/09/03 06:38:07;;;;;;;5.73;4.37;;;14.20;99.90;;;;;;5015177;28;20941;-53
2023/09/03 06:40:34;;;;;;;9.03;4.07;;;14.30;99.90;;;;;;5021788;28;20546;-52
2023/09/03 06:43:01;;;;;;;4.23;3.93;;;14.30;99.90;;;;;;5026453;28;20501;-52
2023/09/03 06:45:27;;;;;;;7.20;4.27;;;14.40;99.90;;;;;;5019224;28;20483;-52
2023/09/03 06:47:54;;;;;;;9.20;4.37;;;14.40;99.90;;;;;;5033069;28;20471;-52
2023/09/03 06:50:21;;;;;;;7.10;4.07;;;14.50;99.90;;;;;;5034904;28;20443;-52
2023/09/03 06:52:48;;;;;;;4.70;3.73;;;14.50;99.90;;;;;;5034911;28;20486;-52
2023/09/03 06:55:15;;;;;;;5.63;3.70;;;14.60;99.90;;;;;;5022473;28;20486;-52
2023/09/03 06:57:42;;;;;;;6.53;2.90;;;14.60;99.90;;;;;;5025070;28;20478;-52
2023/09/03 07:00:10;;;;;;;5.87;3.23;;;14.60;99.90;;;;;;5026264;28;20471;-52
2023/09/03 07:02:36;;;;;;;8.50;3.37;;;14.70;99.90;;;;;;5034908;28;20450;-52
2023/09/03 07:05:03;;;;;;;3.97;3.17;;;14.70;99.90;;;;;;5028282;28;20852;-52
2023/09/03 07:07:30;;;;;;;7.30;3.10;;;14.90;99.90;;;;;;5024702;28;20443;-51
2023/09/03 07:09:58;;;;;;;14.97;3.30;;;15.00;99.90;;;;;;5023164;28;20463;-52
2023/09/03 07:12:24;;;;;;;5.80;3.13;;;15.10;99.90;;;;;;5022874;28;20553;-53
2023/09/03 07:14:51;;;;;;;3.97;2.93;;;15.20;99.90;;;;;;5012740;28;20494;-52
2023/09/03 07:17:18;;;;;;;6.70;3.37;;;15.20;24.30;;;;;;5018526;28;20473;-52
2023/09/03 07:19:44;;;;;;;4.67;3.13;;;15.30;21.80;;;;;;5032553;28;20464;-52
2023/09/03 07:22:11;;;;;;;10.10;2.80;;;15.30;22.70;;;;;;5022129;28;20839;-52
2023/09/03 07:24:37;;;;;;;2.90;2.40;;;15.40;27.30;;;;;;5022264;28;21028;-52
2023/09/03 07:27:05;;;;;;;5.53;2.40;;;15.40;27.30;;;;;;5019050;28;20532;-52
2023/09/03 07:29:32;;;;;;;13.80;2.83;;;15.50;30.10;;;;;;5017693;28;20443;-53
2023/09/03 07:31:59;;;;;;;5.40;2.70;;;15.50;38.00;;;;;;5014361;28;20574;-52
2023/09/03 07:34:25;;;;;;;5.90;2.80;;;15.60;54.90;;;;;;5020530;28;20564;-52
2023/09/03 07:36:52;;;;;;;2.73;2.47;;;15.70;51.90;;;;;;5015927;28;20466;-52
2023/09/03 07:39:19;;;;;;;3.83;2.70;;;15.80;60.20;;;;;;5018361;28;20876;-53
2023/09/03 07:41:47;;;;;;;4.03;2.20;;;15.90;69.00;;;;;;5013997;28;20443;-53
2023/09/03 07:44:15;;;;;;;7.83;2.97;;;15.90;78.60;;;;;;5013215;28;20977;-52
2023/09/03 07:46:41;;;;;;;10.80;2.30;;;16.00;83.70;;;;;;5014078;28;20858;-52
2023/09/03 07:49:08;;;;;;;4.60;2.90;;;16.00;94.40;;;;;;5014079;28;20996;-52
2023/09/03 07:51:35;;;;;;;6.00;2.60;;;16.10;93.10;;;;;;5018306;28;20588;-52
2023/09/03 07:54:01;;;;;;;15.03;2.80;;;16.20;92.40;;;;;;5018835;28;20617;-53
2023/09/03 07:56:30;;;;;;;10.47;2.97;;;16.20;99.90;;;;;;5024570;28;20459;-51
2023/09/03 07:58:56;;;;;;;5.43;2.03;;;16.30;99.90;;;;;;5032824;28;20462;-52
2023/09/03 08:01:24;;;;;;;9.70;2.10;;;16.50;99.90;;;;;;5033680;28;20443;-51
2023/09/03 08:03:51;;;;;;;8.43;2.10;;;16.50;99.90;;;;;;5032924;28;20528;-53
2023/09/03 08:06:18;;;;;;;4.47;2.40;;;16.60;99.90;;;;;;5029487;28;20466;-52
2023/09/03 08:08:44;;;;;;;4.90;2.40;;;16.40;99.90;;;;;;5024960;28;20455;-51
2023/09/03 08:11:11;;;;;;;4.17;1.87;;;16.40;99.90;;;;;;5020163;28;21148;-52
2023/09/03 08:13:37;;;;;;;6.70;2.00;;;16.60;99.90;;;;;;5019933;28;20848;-52
2023/09/03 08:16:04;;;;;;;4.20;2.27;;;16.70;99.90;;;;;;5021241;28;20540;-52
2023/09/03 08:18:32;;;;;;;5.43;2.03;;;16.70;99.90;;;;;;5013372;28;20475;-53
2023/09/03 08:20:59;;;;;;;4.63;2.00;;;16.80;99.90;;;;;;5023501;28;20490;-52
2023/09/03 08:23:26;;;;;;;5.47;2.50;;;16.90;99.90;;;;;;5024956;28;20483;-52
2023/09/03 08:25:53;;;;;;;5.73;1.93;;;16.90;99.90;;;;;;5019954;28;20458;-52
2023/09/03 08:28:19;;;;;;;5.07;2.30;;;16.90;99.90;;;;;;5019632;28;20458;-52
2023/09/03 08:30:47;;;;;;;6.23;2.30;;;16.90;99.90;;;;;;5033089;28;20439;-52
2023/09/03 08:33:14;;;;;;;5.50;2.53;;;16.90;99.90;;;;;;5032868;28;20508;-52
2023/09/03 08:35:42;;;;;;;5.83;2.50;;;16.90;99.90;;;;;;5021436;28;20965;-52
2023/09/03 08:38:09;;;;;;;9.47;2.57;;;17.00;99.90;;;;;;5025415;28;20517;-52
2023/09/03 08:40:36;;;;;;;5.17;2.57;;;17.10;99.90;;;;;;5023649;28;20470;-52
2023/09/03 08:43:07;;;;;;;3.00;2.30;;;17.10;99.90;;;;;;5032856;28;20979;-51
2023/09/03 08:45:41;;;;;;;2.83;2.00;;;17.00;99.90;;;;;;5032436;28;20472;-51
2023/09/03 08:48:08;;;;;;;3.37;2.20;;;17.00;99.90;;;;;;5026374;28;20834;-51
2023/09/03 08:50:35;;;;;;;23.20;3.23;;;17.10;99.90;;;;;;5019563;28;20460;-50
2023/09/03 08:53:03;;;;;;;4.67;2.50;;;17.20;99.90;;;;;;5021859;28;20487;-51
2023/09/03 08:55:32;;;;;;;11.43;2.00;;;17.40;99.90;;;;;;5023563;28;20928;-51
2023/09/03 08:57:59;;;;;;;5.33;2.00;;;17.50;99.90;;;;;;5025091;28;20494;-51
2023/09/03 09:00:26;;;;;;;2.17;1.60;;;17.50;99.90;;;;;;5032524;28;20438;-51
2023/09/03 09:02:54;;;;;;;3.43;2.23;;;17.60;99.90;;;;;;5032356;28;20446;-51
2023/09/03 09:05:21;;;;;;;3.90;1.80;;;17.60;99.90;;;;;;5023075;28;20830;-52
2023/09/03 09:07:48;;;;;;;7.50;2.07;;;17.70;99.90;;;;;;5020153;28;20463;-52
2023/09/03 09:10:21;;;;;;;2.83;1.70;;;17.50;97.30;;;;;;5012719;28;20526;-53
2023/09/03 09:12:52;;;;;;;5.90;1.73;;;17.60;99.90;;;;;;5021730;28;20521;-52
2023/09/03 09:15:19;;;;;;;7.10;2.37;;;17.70;20.10;;;;;;5023677;28;21045;-52
2023/09/03 09:17:46;;;;;;;3.63;1.60;;;17.90;91.90;;;;;;5012399;28;20849;-52
2023/09/03 09:20:14;;;;;;;2.80;1.50;;;17.90;22.10;;;;;;5018239;28;20468;-53
2023/09/03 09:22:41;;;;;;;6.27;1.73;;;17.80;24.70;;;;;;5024542;28;20466;-51
2023/09/03 09:25:08;;;;;;;2.63;1.50;;;18.00;28.50;;;;;;5020954;28;20478;-52
2023/09/03 09:27:38;;;;;;;1.60;1.50;;;18.00;86.00;;;;;;5016394;28;20443;-54
2023/09/03 09:30:12;;;;;;;4.47;2.07;;;18.10;32.50;;;;;;5031767;28;20435;-52
2023/09/03 09:32:41;;;;;;;3.23;1.40;;;18.20;22.00;;;;;;5029841;28;20514;-52
2023/09/03 09:35:09;;;;;;;3.10;1.77;;;18.30;46.80;;;;;;5019819;28;20980;-52
2023/09/03 09:37:39;;;;;;;2.50;1.63;;;18.60;45.10;;;;;;5030482;28;21138;-53
2023/09/03 09:40:07;;;;;;;3.50;2.03;;;19.00;64.10;;;;;;5024640;28;20449;-52
2023/09/03 09:42:35;;;;;;;3.23;1.40;;;19.00;91.70;;;;;;5039812;28;20441;-52
2023/09/03 09:45:03;;;;;;;8.43;2.60;;;19.10;79.40;;;;;;5040952;28;20535;-53
2023/09/03 09:47:31;;;;;;;2.50;1.70;;;19.00;79.80;;;;;;5029940;28;20481;-53
2023/09/03 09:49:58;;;;;;;5.27;1.73;;;18.90;81.20;;;;;;5017842;28;20467;-52
2023/09/03 09:52:35;;;;;;;5.37;1.93;;;18.90;80.00;;;;;;5019216;28;20861;-53
2023/09/03 09:55:01;;;;;;;4.43;1.33;;;18.90;77.50;;;;;;5073865;22;20529;-51
2023/09/03 09:57:28;;;;;;;2.50;1.80;;;18.90;71.40;;;;;;5029484;28;20462;-53
2023/09/03 09:59:56;;;;;;;10.63;1.70;;;18.80;78.30;;;;;;5023264;28;20432;-51
2023/09/03 10:02:24;;;;;;;1.50;1.40;;;19.00;77.40;;;;;;5030631;28;20462;-51
2023/09/03 10:04:52;;;;;;;5.80;1.70;;;19.30;84.50;;;;;;5027018;28;21046;-52
2023/09/03 10:07:19;;;;;;;3.23;1.87;;;19.40;91.70;;;;;;5029868;28;20438;-52
2023/09/03 10:09:47;;;;;;;1.60;1.50;;;19.30;91.10;;;;;;5022991;28;20489;-52
2023/09/03 10:12:14;;;;;;;3.57;1.60;;;19.30;99.90;;;;;;5031542;28;20536;-52
2023/09/03 10:14:41;;;;;;;2.10;1.60;;;19.40;99.90;;;;;;5030930;28;20467;-52
2023/09/03 10:17:10;;;;;;;3.03;1.70;;;19.40;99.80;;;;;;5031601;28;20811;-52
2023/09/03 10:19:43;;;;;;;3.70;1.60;;;19.50;99.90;;;;;;5029070;28;20552;-52
2023/09/03 10:22:14;;;;;;;3.57;1.40;;;19.80;99.90;;;;;;5022566;28;20885;-51
2023/09/03 10:24:43;;;;;;;5.17;1.90;;;19.80;99.90;;;;;;5030205;28;20481;-53
2023/09/03 10:27:13;;;;;;;2.50;1.43;;;20.20;99.90;;;;;;5031405;28;20443;-52
2023/09/03 10:29:43;;;;;;;3.03;1.53;;;20.80;99.90;;;;;;5031457;28;20439;-52
2023/09/03 10:32:13;;;;;;;2.77;1.23;;;21.00;99.90;;;;;;5030531;28;20478;-53
2023/09/03 10:34:41;;;;;;;12.83;2.03;;;21.20;99.90;;;;;;5018481;28;20576;-51
2023/09/03 10:37:09;;;;;;;3.40;1.67;;;21.00;99.90;;;;;;5025269;28;20517;-51
2023/09/03 10:39:37;;;;;;;4.17;1.70;;;20.50;99.90;;;;;;5030959;28;20500;-51
2023/09/03 10:42:26;;;;;;;2.40;1.60;;;20.70;99.90;;;;;;5031202;28;20537;-51
2023/09/03 10:44:54;;;;;;;3.10;1.70;;;20.60;99.90;;;;;;5030519;28;20875;-51
2023/09/03 10:47:20;;;;;;;7.70;1.60;;;20.20;99.90;;;;;;5031318;28;20481;-52
2023/09/03 10:49:49;;;;;;;2.80;1.80;;;20.80;99.90;;;;;;5022858;28;21004;-51
2023/09/03 10:52:34;;;;;;;5.10;1.60;;;20.90;99.90;;;;;;5026683;28;20988;-53
2023/09/03 10:55:16;;;;;;;2.63;1.63;;;21.30;99.90;;;;;;5028147;28;20492;-53
2023/09/03 10:57:43;;;;;;;2.40;1.40;;;21.10;99.90;;;;;;5030845;28;20526;-52
2023/09/03 11:00:16;;;;;;;3.87;1.50;;;21.50;99.90;;;;;;5024124;28;20458;-52
2023/09/03 11:02:44;;;;;;;4.20;2.00;;;21.60;99.90;;;;;;5031855;28;20815;-51
2023/09/03 11:05:19;;;;;;;4.10;1.43;;;21.60;99.90;;;;;;5032964;28;20474;-53
2023/09/03 11:07:46;;;;;;;2.20;1.60;;;21.70;99.90;;;;;;5030215;28;20504;-53
2023/09/03 11:10:41;;;;;;;2.13;1.20;;;21.60;99.90;;;;;;5034067;28;20485;-52
2023/09/03 11:13:17;;;;;;;1.20;1.10;;;21.70;99.90;;;;;;5030586;28;20515;-52
2023/09/03 11:15:51;;;;;;;2.53;2.03;;;21.50;99.90;;;;;;5029852;28;20459;-52
2023/09/03 11:18:20;;;;;;;1.50;1.10;;;21.30;99.90;;;;;;5026894;28;20474;-52
2023/09/03 11:20:49;;;;;;;3.47;1.47;;;20.80;99.90;;;;;;5034091;28;20442;-51
2023/09/03 11:23:15;;;;;;;2.20;1.47;;;20.80;99.90;;;;;;5026818;28;20464;-53
2023/09/03 11:25:42;;;;;;;2.70;1.20;;;20.90;99.90;;;;;;5031262;28;20516;-53
2023/09/03 11:28:11;;;;;;;2.00;1.33;;;20.50;99.90;;;;;;5025711;28;20517;-53
2023/09/03 11:30:38;;;;;;;2.40;1.37;;;20.60;99.90;;;;;;5034173;28;20535;-53
2023/09/03 11:33:08;;;;;;;1.47;1.10;;;20.60;99.90;;;;;;5027379;28;20511;-51
2023/09/03 11:35:42;;;;;;;3.70;1.60;;;20.60;99.90;;;;;;5032993;28;20463;-51
2023/09/03 11:38:10;;;;;;;1.63;1.50;;;20.60;99.90;;;;;;5033015;28;20419;-52
2023/09/03 11:40:37;;;;;;;1.33;1.23;;;20.70;99.90;;;;;;5014303;28;20459;-53
2023/09/03 11:43:04;;;;;;;3.57;1.20;;;20.70;99.90;;;;;;5020251;28;20454;-53
2023/09/03 11:45:31;;;;;;;1.93;1.30;;;20.40;99.90;;;;;;5032775;28;20455;-53
2023/09/03 11:47:58;;;;;;;1.93;1.27;;;20.50;99.90;;;;;;5029596;28;20525;-54
2023/09/03 11:50:25;;;;;;;4.00;1.67;;;20.60;99.90;;;;;;5033432;28;20443;-51
2023/09/03 11:52:56;;;;;;;3.00;1.67;;;20.70;99.90;;;;;;5033759;28;20510;-51
2023/09/03 11:55:27;;;;;;;5.30;1.80;;;20.90;99.90;;;;;;5031437;28;20498;-52
2023/09/03 11:57:56;;;;;;;2.20;1.67;;;21.10;99.90;;;;;;5027308;28;20508;-54
2023/09/03 12:00:23;;;;;;;3.40;1.60;;;20.90;99.90;;;;;;5023304;28;20586;-52
2023/09/03 12:02:50;;;;;;;7.53;1.67;;;21.00;99.90;;;;;;5029697;28;20466;-53
2023/09/03 12:05:18;;;;;;;7.10;1.57;;;21.20;99.90;;;;;;5029150;28;20483;-53
2023/09/03 12:07:44;;;;;;;2.00;1.30;;;21.10;99.90;;;;;;5033035;28;20816;-51
2023/09/03 12:10:11;;;;;;;4.27;1.63;;;21.10;99.90;;;;;;5029721;28;20455;-52
2023/09/03 12:12:42;;;;;;;2.60;1.47;;;21.20;99.90;;;;;;5031401;28;20505;-52
2023/09/03 12:15:18;;;;;;;2.07;1.90;;;21.30;99.90;;;;;;5028788;28;20536;-52
2023/09/03 12:17:45;;;;;;;3.23;1.47;;;21.20;99.90;;;;;;5032391;28;20427;-51
2023/09/03 12:20:36;;;;;;;1.97;1.40;;;21.30;99.90;;;;;;5024671;28;20434;-52
2023/09/03 12:23:10;;;;;;;1.27;1.10;;;21.20;99.90;;;;;;5013386;28;20431;-54
2023/09/03 12:25:37;;;;;;;2.10;1.30;;;21.20;99.90;;;;;;5012622;28;20487;-51
2023/09/03 12:28:06;;;;;;;2.60;1.20;;;21.30;99.90;;;;;;5028399;28;20524;-53
2023/09/03 12:30:55;;;;;;;6.00;1.63;;;21.20;99.90;;;;;;5024101;28;20467;-52
2023/09/03 12:33:21;;;;;;;1.53;1.10;;;21.10;99.90;;;;;;5026508;28;20483;-51
2023/09/03 12:36:03;;;;;;;10.93;1.70;;;21.20;99.90;;;;;;5032004;28;20466;-52
2023/09/03 12:38:30;;;;;;;3.03;1.37;;;21.70;99.90;;;;;;5023601;28;20460;-51
2023/09/03 12:40:57;;;;;;;3.70;1.33;;;22.30;99.90;;;;;;5023557;28;20869;-53
2023/09/03 12:43:26;;;;;;;2.40;1.47;;;22.30;1.40;;;;;;5031121;28;20925;-53
2023/09/03 12:45:53;;;;;;;1.50;1.40;;;22.10;99.90;;;;;;5021164;28;20483;-53